createdAt,value
2019-04-16T00:00:58.651Z,88714.81
2019-04-16T00:03:28.490Z,88676.85
2019-04-16T00:06:00.045Z,88650.69
2019-04-16T00:08:31.438Z,88588.77
2019-04-16T00:11:17.918Z,88697.69
2019-04-16T00:13:49.268Z,88812.86
2019-04-16T00:16:19.026Z,88604.25
2019-04-16T00:18:57.120Z,88542.89
2019-04-16T00:21:41.233Z,88421.89
2019-04-16T00:24:18.135Z,88270.33
2019-04-16T00:26:44.810Z,88270.92
2019-04-16T00:29:14.696Z,88300.44
2019-04-16T00:31:46.067Z,88239.22
2019-04-16T00:34:15.864Z,88168.76
2019-04-16T00:36:48.390Z,87992.52
2019-04-16T00:39:17.134Z,87941.65
2019-04-16T00:41:46.906Z,87720.80
2019-04-16T00:44:16.681Z,87685.48
2019-04-16T00:46:46.833Z,87654.03
2019-04-16T00:49:16.621Z,87725.84
2019-04-16T00:51:46.374Z,87539.05
2019-04-16T00:54:16.182Z,87440.30
2019-04-16T00:56:46.803Z,87474.97
2019-04-16T00:59:17.406Z,87423.88
2019-04-16T01:01:47.193Z,87351.00
2019-04-16T01:04:16.973Z,87335.66
2019-04-16T01:06:46.726Z,87344.41
2019-04-16T01:09:16.536Z,87298.09
2019-04-16T01:11:48.887Z,87259.48
2019-04-16T01:14:17.829Z,87167.02
2019-04-16T01:16:47.697Z,87139.41
2019-04-16T01:19:17.569Z,87142.86
2019-04-16T01:21:47.349Z,87072.88
2019-04-16T01:24:17.505Z,87078.19
2019-04-16T01:26:48.622Z,87063.43
2019-04-16T01:29:18.401Z,87009.34
2019-04-16T01:31:55.815Z,87077.93
2019-04-16T01:34:27.164Z,86878.13
2019-04-16T01:36:58.502Z,86858.73
2019-04-16T01:39:29.881Z,86787.31
2019-04-16T01:41:59.754Z,86806.74
2019-04-16T01:44:29.767Z,86728.04
2019-04-16T01:47:03.360Z,86702.59
2019-04-16T01:49:31.001Z,86528.33
2019-04-16T01:52:00.822Z,86521.22
2019-04-16T01:54:30.655Z,86382.97
2019-04-16T01:57:00.883Z,86240.29
2019-04-16T01:59:35.638Z,86096.07
2019-04-16T02:02:03.036Z,86145.41
2019-04-16T02:04:32.980Z,86164.50
2019-04-16T02:07:02.731Z,86046.45
2019-04-16T02:09:34.642Z,86068.04
2019-04-16T02:12:03.987Z,85949.22
2019-04-16T02:14:33.755Z,85742.55
2019-04-16T02:17:03.883Z,85785.37
2019-04-16T02:19:34.475Z,85759.94
2019-04-16T02:22:04.223Z,85762.11
2019-04-16T02:24:34.051Z,85605.05
2019-04-16T02:27:04.217Z,85569.99
2019-04-16T02:29:33.990Z,85743.91
2019-04-16T02:32:03.820Z,85765.84
2019-04-16T02:34:33.612Z,85845.29
2019-04-16T02:37:03.634Z,85726.16
2019-04-16T02:39:47.907Z,85631.85
2019-04-16T02:42:05.017Z,85563.02
2019-04-16T02:44:34.805Z,85554.73
2019-04-16T02:47:07.264Z,85533.61
2019-04-16T02:49:36.054Z,85404.70
2019-04-16T02:52:10.908Z,85404.86
2019-04-16T02:54:43.622Z,85412.83
2019-04-16T02:57:25.872Z,85370.41
2019-04-16T02:59:53.344Z,85205.22
2019-04-16T03:02:24.688Z,85149.79
2019-04-16T03:04:59.131Z,85251.73
2019-04-16T03:07:28.891Z,85304.18
2019-04-16T03:10:01.389Z,85363.46
2019-04-16T03:12:30.152Z,85268.14
2019-04-16T03:15:01.049Z,85297.14
2019-04-16T03:17:42.891Z,85306.61
2019-04-16T03:20:20.778Z,85251.70
2019-04-16T03:22:49.458Z,85232.80
2019-04-16T03:25:19.220Z,85250.52
2019-04-16T03:27:51.548Z,85223.34
2019-04-16T03:30:20.869Z,85228.92
2019-04-16T03:32:51.072Z,85119.11
2019-04-16T03:35:25.225Z,85078.34
2019-04-16T03:37:52.432Z,85000.93
2019-04-16T03:40:25.633Z,84789.73
2019-04-16T03:42:58.998Z,84818.53
2019-04-16T03:45:25.152Z,84648.21
2019-04-16T03:47:56.015Z,84651.73
2019-04-16T03:50:31.019Z,84549.70
2019-04-16T03:52:57.324Z,84531.31
2019-04-16T03:55:27.075Z,84491.14
2019-04-16T03:57:56.846Z,84515.47
2019-04-16T04:00:26.591Z,84288.95
2019-04-16T04:02:56.365Z,84155.04
2019-04-16T04:05:26.033Z,84183.20
2019-04-16T04:07:55.873Z,84082.39
2019-04-16T04:10:30.664Z,84103.16
2019-04-16T04:12:57.062Z,84116.53
2019-04-16T04:15:27.233Z,84174.92
2019-04-16T04:17:57.107Z,84175.08
2019-04-16T04:20:27.177Z,84133.95
2019-04-16T04:22:57.890Z,84310.38
2019-04-16T04:25:27.713Z,84434.76
2019-04-16T04:27:57.468Z,84497.53
2019-04-16T04:30:28.850Z,84721.45
2019-04-16T04:32:58.735Z,84902.13
2019-04-16T04:35:28.535Z,85036.36
2019-04-16T04:38:00.721Z,85283.52
2019-04-16T04:40:43.474Z,85826.36
2019-04-16T04:43:01.750Z,86435.51
2019-04-16T04:45:31.734Z,86867.42
2019-04-16T04:48:01.504Z,87327.39
2019-04-16T04:50:32.435Z,87845.89
2019-04-16T04:53:02.811Z,88333.14
2019-04-16T04:55:32.571Z,88408.92
2019-04-16T04:58:03.320Z,88443.27
2019-04-16T05:00:33.379Z,88539.71
2019-04-16T05:03:03.319Z,88689.23
2019-04-16T05:05:43.653Z,88592.64
2019-04-16T05:08:13.895Z,88762.05
2019-04-16T05:10:45.348Z,89211.73
2019-04-16T05:13:15.083Z,90336.99
2019-04-16T05:15:44.853Z,91240.19
2019-04-16T05:18:14.630Z,91784.21
2019-04-16T05:20:47.022Z,92135.75
2019-04-16T05:23:16.092Z,92479.87
2019-04-16T05:25:45.853Z,92664.67
2019-04-16T05:28:15.664Z,92720.77
2019-04-16T05:30:45.395Z,92959.66
2019-04-16T05:33:15.156Z,92918.99
2019-04-16T05:35:44.998Z,92839.41
2019-04-16T05:38:14.739Z,92763.98
2019-04-16T05:40:44.984Z,92806.34
2019-04-16T05:43:16.519Z,92731.89
2019-04-16T05:45:46.315Z,92211.88
2019-04-16T05:48:18.505Z,91818.07
2019-04-16T05:50:47.605Z,91402.27
2019-04-16T05:53:17.407Z,91247.83
2019-04-16T05:56:01.047Z,91226.20
2019-04-16T05:58:31.568Z,91662.55
2019-04-16T06:01:03.904Z,91600.41
2019-04-16T06:03:33.702Z,91581.73
2019-04-16T06:06:03.473Z,92155.45
2019-04-16T06:08:33.265Z,92430.55
2019-04-16T06:11:03.367Z,92814.92
2019-04-16T06:13:46.637Z,93175.27
2019-04-16T06:16:18.069Z,93090.78
2019-04-16T06:18:55.504Z,93068.27
2019-04-16T06:21:35.514Z,92999.22
2019-04-16T06:24:07.966Z,92754.16
2019-04-16T06:26:44.535Z,92711.89
2019-04-16T06:29:17.974Z,92872.69
2019-04-16T06:32:01.524Z,93171.81
2019-04-16T06:34:48.828Z,93231.22
2019-04-16T06:37:21.489Z,93456.66
2019-04-16T06:40:08.923Z,93318.33
2019-04-16T06:42:40.333Z,93362.66
2019-04-16T06:45:14.491Z,93524.26
2019-04-16T06:47:57.682Z,93556.17
2019-04-16T06:50:39.417Z,93901.34
2019-04-16T06:53:06.520Z,94131.57
2019-04-16T06:55:37.833Z,94211.36
2019-04-16T06:58:16.422Z,94173.16
2019-04-16T07:01:07.129Z,94189.11
2019-04-16T07:03:39.836Z,94159.46
2019-04-16T07:06:11.147Z,94176.67
2019-04-16T07:08:54.672Z,94125.11
2019-04-16T07:11:25.438Z,94244.75
2019-04-16T07:13:55.291Z,94221.86
2019-04-16T07:16:27.921Z,94374.56
2019-04-16T07:18:56.676Z,94418.77
2019-04-16T07:21:26.616Z,94540.88
2019-04-16T07:23:58.385Z,94617.52
2019-04-16T07:26:28.129Z,94721.98
2019-04-16T07:29:07.301Z,94742.28
2019-04-16T07:31:39.303Z,94829.12
2019-04-16T07:34:27.143Z,94921.50
2019-04-16T07:37:02.833Z,94930.76
2019-04-16T07:39:49.419Z,94911.52
2019-04-16T07:42:26.369Z,94858.40
2019-04-16T07:45:02.945Z,94718.23
2019-04-16T07:47:34.308Z,94757.31
2019-04-16T07:50:23.930Z,94824.52
2019-04-16T07:52:55.094Z,94799.42
2019-04-16T07:55:27.349Z,94701.23
2019-04-16T07:57:57.429Z,94530.62
2019-04-16T08:00:27.232Z,94477.59
2019-04-16T08:02:57.025Z,94362.38
2019-04-16T08:05:28.043Z,94301.88
2019-04-16T08:07:59.051Z,94413.16
2019-04-16T08:10:28.857Z,94323.96
2019-04-16T08:13:01.790Z,94211.16
2019-04-16T08:15:31.708Z,94032.91
2019-04-16T08:18:01.547Z,93802.19
2019-04-16T08:20:31.726Z,93776.42
2019-04-16T08:23:03.123Z,93821.11
2019-04-16T08:25:34.052Z,93798.47
2019-04-16T08:28:07.018Z,93614.35
2019-04-16T08:30:39.304Z,93820.61
2019-04-16T08:33:10.571Z,94031.50
2019-04-16T08:35:39.261Z,94042.41
2019-04-16T08:38:09.051Z,93884.69
2019-04-16T08:40:38.881Z,93735.66
2019-04-16T08:43:08.707Z,93636.95
2019-04-16T08:45:39.849Z,93884.78
2019-04-16T08:48:09.922Z,94093.94
2019-04-16T08:50:39.710Z,94005.33
2019-04-16T08:53:13.502Z,93873.28
2019-04-16T08:55:41.035Z,93736.53
2019-04-16T08:58:12.868Z,93639.72
2019-04-16T09:00:46.667Z,93500.84
2019-04-16T09:03:15.723Z,93373.73
2019-04-16T09:05:47.782Z,93532.30
2019-04-16T09:08:22.758Z,93393.66
2019-04-16T09:10:53.789Z,93320.39
2019-04-16T09:13:25.626Z,93218.37
2019-04-16T09:15:55.473Z,93213.03
2019-04-16T09:18:42.999Z,93170.86
2019-04-16T09:21:12.897Z,93635.48
2019-04-16T09:23:45.795Z,93668.66
2019-04-16T09:26:23.675Z,93471.85
2019-04-16T09:28:53.137Z,93344.80
2019-04-16T09:31:39.896Z,93255.50
2019-04-16T09:34:11.326Z,93270.17
2019-04-16T09:36:55.019Z,93352.21
2019-04-16T09:39:36.005Z,93341.39
2019-04-16T09:42:05.853Z,93258.30
2019-04-16T09:44:35.814Z,93155.13
2019-04-16T09:47:05.886Z,93147.95
2019-04-16T09:49:37.578Z,93103.11
2019-04-16T09:52:07.167Z,93109.04
2019-04-16T09:54:37.790Z,93120.93
2019-04-16T09:57:07.609Z,93124.23
2019-04-16T09:59:39.908Z,93075.55
2019-04-16T10:02:11.391Z,93091.73
2019-04-16T10:04:41.154Z,93126.75
2019-04-16T10:07:10.909Z,93085.64
2019-04-16T10:09:41.024Z,92899.23
2019-04-16T10:12:10.856Z,92869.88
2019-04-16T10:14:40.726Z,92973.47
2019-04-16T10:17:10.545Z,92921.67
2019-04-16T10:19:43.263Z,92872.67
2019-04-16T10:22:12.869Z,92801.02
2019-04-16T10:24:46.937Z,93440.98
2019-04-16T10:27:18.931Z,93340.75
2019-04-16T10:29:48.932Z,93176.31
2019-04-16T10:32:19.424Z,93161.56
2019-04-16T10:34:50.079Z,93156.36
2019-04-16T10:37:20.056Z,93156.84
2019-04-16T10:40:04.709Z,92980.59
2019-04-16T10:42:34.355Z,92885.30
2019-04-16T10:45:09.164Z,93054.29
2019-04-16T10:47:43.743Z,93045.06
2019-04-16T10:50:15.339Z,93101.45
2019-04-16T10:52:54.545Z,93290.00
2019-04-16T10:55:29.521Z,93220.73
2019-04-16T10:58:17.233Z,93208.77
2019-04-16T11:00:50.468Z,93399.69
2019-04-16T11:03:24.861Z,93483.56
2019-04-16T11:05:57.060Z,93533.20
2019-04-16T11:08:28.147Z,93469.92
2019-04-16T11:10:57.950Z,93489.76
2019-04-16T11:13:35.524Z,93386.13
2019-04-16T11:16:07.768Z,93380.98
2019-04-16T11:18:39.716Z,93285.14
2019-04-16T11:21:09.704Z,93391.73
2019-04-16T11:23:39.502Z,93537.67
2019-04-16T11:26:09.499Z,93505.77
2019-04-16T11:28:39.269Z,93453.98
2019-04-16T11:31:13.375Z,93578.14
2019-04-16T11:33:43.550Z,93555.69
2019-04-16T11:36:19.900Z,93500.05
2019-04-16T11:38:45.151Z,93434.92
2019-04-16T11:41:15.077Z,93366.79
2019-04-16T11:43:44.894Z,93307.58
2019-04-16T11:46:16.799Z,93239.55
2019-04-16T11:48:50.105Z,93191.88
2019-04-16T11:51:18.493Z,93219.80
2019-04-16T11:53:49.412Z,93206.01
2019-04-16T11:56:22.481Z,93304.64
2019-04-16T11:58:52.614Z,93362.23
2019-04-16T12:01:24.198Z,93500.17
2019-04-16T12:03:58.324Z,93459.02
2019-04-16T12:06:46.898Z,93359.05
2019-04-16T12:09:34.994Z,93318.05
2019-04-16T12:12:15.399Z,93425.80
2019-04-16T12:14:57.457Z,93446.56
2019-04-16T12:17:36.515Z,93502.95
2019-04-16T12:20:10.060Z,93558.70
2019-04-16T12:22:56.640Z,93563.27
2019-04-16T12:25:30.013Z,93581.06
2019-04-16T12:28:05.907Z,93569.24
2019-04-16T12:30:48.473Z,93613.67
2019-04-16T12:33:34.793Z,93456.61
2019-04-16T12:36:19.112Z,93439.59
2019-04-16T12:38:51.782Z,93402.14
2019-04-16T12:41:23.168Z,93417.09
2019-04-16T12:44:11.796Z,93436.27
2019-04-16T12:46:46.090Z,93492.87
2019-04-16T12:49:34.427Z,93600.89
2019-04-16T12:52:06.388Z,93622.19
2019-04-16T12:54:43.797Z,93645.09
2019-04-16T12:57:17.815Z,93630.83
2019-04-16T12:59:55.667Z,93645.09
2019-04-16T13:02:29.846Z,93636.02
2019-04-16T13:05:01.245Z,93644.71
2019-04-16T13:07:32.941Z,93625.91
2019-04-16T13:10:22.905Z,93574.20
2019-04-16T13:13:10.413Z,93592.36
2019-04-16T13:15:41.842Z,93583.23
2019-04-16T13:18:19.296Z,93553.32
2019-04-16T13:21:05.441Z,93577.30
2019-04-16T13:23:38.909Z,93545.64
2019-04-16T13:26:12.856Z,93545.11
2019-04-16T13:28:41.990Z,93565.79
2019-04-16T13:31:11.830Z,93605.75
2019-04-16T13:33:43.582Z,93594.12
2019-04-16T13:36:13.860Z,93575.27
2019-04-16T13:38:46.830Z,93557.19
2019-04-16T13:41:16.602Z,93544.99
2019-04-16T13:43:57.319Z,93526.00
2019-04-16T13:46:29.465Z,93529.30
2019-04-16T13:49:18.340Z,93550.25
2019-04-16T13:51:49.721Z,93550.64
2019-04-16T13:54:21.138Z,93563.83
2019-04-16T13:56:52.535Z,93550.23
2019-04-16T13:59:23.862Z,93592.38
2019-04-16T14:01:59.201Z,93637.05
2019-04-16T14:04:31.670Z,93691.30
2019-04-16T14:07:02.733Z,93693.23
2019-04-16T14:09:34.768Z,93702.61
2019-04-16T14:12:04.802Z,93695.53
2019-04-16T14:14:35.412Z,93710.79
2019-04-16T14:17:10.300Z,93710.95
2019-04-16T14:19:38.788Z,93740.53
2019-04-16T14:22:09.789Z,93705.36
2019-04-16T14:24:40.030Z,93690.96
2019-04-16T14:27:13.799Z,93701.66
2019-04-16T14:29:44.159Z,93700.14
2019-04-16T14:32:14.151Z,93706.03
2019-04-16T14:34:54.809Z,93703.38
2019-04-16T14:37:24.825Z,93679.75
2019-04-16T14:40:12.604Z,93672.63
2019-04-16T14:42:42.216Z,93689.98
2019-04-16T14:45:26.257Z,93720.80
2019-04-16T14:47:56.938Z,93722.23
2019-04-16T14:50:26.755Z,93743.41
2019-04-16T14:52:56.355Z,93764.91
2019-04-16T14:55:30.557Z,93783.50
2019-04-16T14:58:04.557Z,93772.60
2019-04-16T15:00:51.501Z,93735.00
2019-04-16T15:03:31.576Z,93722.06
2019-04-16T15:06:09.025Z,93788.26
2019-04-16T15:08:40.862Z,93845.60
2019-04-16T15:11:27.504Z,93858.95
2019-04-16T15:14:15.369Z,93862.41
2019-04-16T15:16:50.513Z,93875.02
2019-04-16T15:19:36.325Z,93875.03
2019-04-16T15:22:26.207Z,93880.19
2019-04-16T15:25:00.503Z,93881.88
2019-04-16T15:27:34.876Z,93885.29
2019-04-16T15:30:11.579Z,93869.95
2019-04-16T15:32:42.970Z,93864.70
2019-04-16T15:35:17.374Z,93881.27
2019-04-16T15:37:59.187Z,93907.36
2019-04-16T15:40:31.978Z,93919.55
2019-04-16T15:43:20.659Z,93959.66
2019-04-16T15:45:55.048Z,93957.03
2019-04-16T15:48:33.708Z,93971.68
2019-04-16T15:51:07.766Z,93977.41
2019-04-16T15:53:44.286Z,93981.69
2019-04-16T15:56:25.157Z,93982.80
2019-04-16T15:58:58.000Z,94002.81
2019-04-16T16:01:29.413Z,94019.22
2019-04-16T16:04:12.973Z,94036.16
2019-04-16T16:06:45.359Z,93977.21
2019-04-16T16:09:20.084Z,93978.09
2019-04-16T16:11:55.084Z,94034.59
2019-04-16T16:14:24.669Z,94081.58
2019-04-16T16:16:54.455Z,94111.20
2019-04-16T16:19:26.111Z,94142.11
2019-04-16T16:21:56.223Z,94156.72
2019-04-16T16:24:26.935Z,94155.72
2019-04-16T16:26:56.849Z,94164.56
2019-04-16T16:29:26.662Z,94167.41
2019-04-16T16:31:56.430Z,94183.69
2019-04-16T16:34:26.214Z,94199.91
2019-04-16T16:36:56.277Z,94207.63
2019-04-16T16:39:26.096Z,94203.38
2019-04-16T16:41:55.957Z,94197.42
2019-04-16T16:44:25.751Z,94195.64
2019-04-16T16:46:58.552Z,94196.50
2019-04-16T16:49:28.792Z,94212.02
2019-04-16T16:52:00.199Z,94206.42
2019-04-16T16:54:29.989Z,94225.81
2019-04-16T16:57:03.570Z,94233.05
2019-04-16T16:59:43.445Z,94246.74
2019-04-16T17:02:16.667Z,94249.86
2019-04-16T17:04:50.293Z,94278.64
2019-04-16T17:07:21.734Z,94279.92
2019-04-16T17:09:51.491Z,94289.34
2019-04-16T17:12:21.527Z,94296.38
2019-04-16T17:14:52.399Z,94322.97
2019-04-16T17:17:22.937Z,94324.00
2019-04-16T17:19:52.777Z,94353.00
2019-04-16T17:22:22.615Z,94370.25
2019-04-16T17:24:52.695Z,94379.54
2019-04-16T17:27:24.323Z,94397.94
2019-04-16T17:29:55.153Z,94422.63
2019-04-16T17:32:25.128Z,94438.16
2019-04-16T17:34:56.311Z,94449.39
2019-04-16T17:37:28.683Z,94465.27
2019-04-16T17:39:59.410Z,94480.55
2019-04-16T17:42:36.900Z,94489.52
2019-04-16T17:45:24.031Z,94513.11
2019-04-16T17:48:12.534Z,94527.93
2019-04-16T17:50:58.982Z,94534.44
2019-04-16T17:53:36.353Z,94547.93
2019-04-16T17:56:23.973Z,94567.17
2019-04-16T17:59:13.885Z,94578.44
2019-04-16T18:01:46.396Z,94583.71
2019-04-16T18:04:24.657Z,94589.73
2019-04-16T18:06:56.779Z,94585.86
2019-04-16T18:09:29.479Z,94586.87
2019-04-16T18:12:12.886Z,94584.45
2019-04-16T18:15:07.081Z,94587.62
2019-04-16T18:17:46.939Z,94579.39
2019-04-16T18:20:15.933Z,94579.84
2019-04-16T18:22:52.366Z,94578.09
2019-04-16T18:25:25.375Z,94577.14
2019-04-16T18:28:06.420Z,94566.23
2019-04-16T18:30:48.333Z,94573.47
2019-04-16T18:33:19.998Z,94550.11
2019-04-16T18:35:55.373Z,94548.17
2019-04-16T18:38:36.423Z,94540.76
2019-04-16T18:41:12.946Z,94517.36
2019-04-16T18:43:51.637Z,94506.16
2019-04-16T18:46:30.960Z,94493.81
2019-04-16T18:49:04.186Z,94462.70
2019-04-16T18:51:35.343Z,94446.25
2019-04-16T18:54:05.426Z,94430.05
2019-04-16T18:56:36.303Z,94417.88
2019-04-16T18:59:06.775Z,94406.35
2019-04-16T19:01:39.812Z,94510.63
2019-04-16T19:04:14.436Z,94620.13
2019-04-16T19:06:44.956Z,94530.60
2019-04-16T19:09:22.296Z,94466.40
2019-04-16T19:11:56.434Z,94421.87
2019-04-16T19:14:29.458Z,94416.81
2019-04-16T19:17:00.603Z,94382.98
2019-04-16T19:19:30.573Z,94360.27
2019-04-16T19:22:03.992Z,94319.41
2019-04-16T19:24:35.771Z,94307.02
2019-04-16T19:27:06.812Z,94323.92
2019-04-16T19:29:37.764Z,94410.47
2019-04-16T19:32:09.391Z,94423.69
2019-04-16T19:34:41.154Z,94382.36
2019-04-16T19:37:11.197Z,94311.50
2019-04-16T19:39:46.819Z,94268.27
2019-04-16T19:42:19.576Z,94211.66
2019-04-16T19:44:51.546Z,94145.08
2019-04-16T19:47:26.571Z,94096.11
2019-04-16T19:49:59.503Z,94026.72
2019-04-16T19:52:30.748Z,93984.50
2019-04-16T19:55:01.132Z,93919.36
2019-04-16T19:57:31.289Z,93841.30
2019-04-16T20:00:01.776Z,93787.38
2019-04-16T20:02:33.417Z,93762.41
2019-04-16T20:05:05.515Z,93667.48
2019-04-16T20:10:27.494Z,93866.88
2019-04-16T20:12:59.734Z,93973.57
2019-04-16T20:15:30.077Z,93902.22
2019-04-16T20:18:06.091Z,93812.96
2019-04-16T20:20:34.434Z,93911.65
2019-04-16T20:23:05.454Z,93900.86
2019-04-16T20:25:36.317Z,93846.94
2019-04-16T20:28:08.964Z,93806.04
2019-04-16T20:30:38.155Z,93731.31
2019-04-16T20:33:08.076Z,93723.53
2019-04-16T20:35:38.215Z,93608.33
2019-04-16T20:38:08.122Z,93546.68
2019-04-16T20:40:40.256Z,93487.74
2019-04-16T20:43:10.433Z,93439.72
2019-04-16T20:45:40.325Z,93326.82
2019-04-16T20:48:12.513Z,93258.75
2019-04-16T20:50:41.743Z,93278.58
2019-04-16T20:53:14.088Z,93247.95
2019-04-16T20:55:47.113Z,93134.73
2019-04-16T20:58:16.250Z,93168.97
2019-04-16T21:00:47.698Z,93260.28
2019-04-16T21:03:22.255Z,93372.62
2019-04-16T21:05:58.084Z,93485.34
2019-04-16T21:08:24.438Z,93443.72
2019-04-16T21:10:52.394Z,93353.84
2019-04-16T21:13:23.412Z,93241.02
2019-04-16T21:15:53.191Z,93127.54
2019-04-16T21:18:23.012Z,93051.16
2019-04-16T21:20:52.893Z,93064.11
2019-04-16T21:23:22.659Z,92984.17
2019-04-16T21:25:52.470Z,92923.70
2019-04-16T21:28:23.816Z,92816.55
2019-04-16T21:31:01.292Z,92783.15
2019-04-16T21:33:41.659Z,93058.27
2019-04-16T21:36:13.057Z,93130.06
2019-04-16T21:38:45.211Z,93028.75
2019-04-16T21:41:15.818Z,92908.56
2019-04-16T21:43:45.533Z,92878.05
2019-04-16T21:46:20.177Z,92963.51
2019-04-16T21:48:46.823Z,92970.70
2019-04-16T21:51:19.222Z,92926.39
2019-04-16T21:53:48.084Z,92877.40
2019-04-16T21:56:19.572Z,92781.70
2019-04-16T21:58:50.118Z,92798.77
2019-04-16T22:01:21.836Z,92655.80
2019-04-16T22:03:54.037Z,92632.55
2019-04-16T22:06:24.715Z,92557.52
2019-04-16T22:08:54.628Z,92370.63
2019-04-16T22:11:24.468Z,92277.39
2019-04-16T22:13:54.955Z,92226.83
2019-04-16T22:16:26.676Z,92409.00
2019-04-16T22:18:56.204Z,92515.31
2019-04-16T22:21:26.017Z,92503.34
2019-04-16T22:23:55.921Z,92440.09
2019-04-16T22:26:25.703Z,92326.75
2019-04-16T22:28:55.460Z,92278.65
2019-04-16T22:31:25.254Z,92229.94
2019-04-16T22:33:55.129Z,92137.77
2019-04-16T22:36:24.892Z,92093.87
2019-04-16T22:38:59.447Z,92033.09
2019-04-16T22:41:47.930Z,92023.20
2019-04-16T22:44:35.732Z,91996.48
2019-04-16T22:47:07.274Z,91990.70
2019-04-16T22:49:37.246Z,91935.85
2019-04-16T22:52:07.014Z,91834.81
2019-04-16T22:54:36.782Z,91758.27
2019-04-16T22:57:08.262Z,91850.27
2019-04-16T22:59:39.408Z,91984.88
2019-04-16T23:02:13.754Z,92078.23
2019-04-16T23:04:42.835Z,92038.88
2019-04-16T23:07:12.611Z,92008.72
2019-04-16T23:09:42.364Z,92096.36
2019-04-16T23:12:12.195Z,92192.80
2019-04-16T23:14:42.008Z,92225.47
2019-04-16T23:17:14.204Z,92163.49
2019-04-16T23:19:43.342Z,92110.32
2019-04-16T23:22:15.201Z,91856.14
2019-04-16T23:24:44.627Z,91726.66
2019-04-16T23:27:14.447Z,91664.30
2019-04-16T23:29:47.332Z,91629.02
2019-04-16T23:32:15.729Z,91560.07
2019-04-16T23:34:45.518Z,91447.19
2019-04-16T23:37:15.344Z,91366.86
2019-04-16T23:39:45.150Z,91358.55
2019-04-16T23:42:18.797Z,91507.25
2019-04-16T23:45:03.485Z,91485.70
2019-04-16T23:47:34.885Z,91354.81
2019-04-16T23:50:07.104Z,91429.02
2019-04-16T23:52:39.448Z,91371.35
2019-04-16T23:55:17.503Z,91259.93
2019-04-16T23:58:01.843Z,91269.22
